sensor_id;sensor_type;location;lat;lon;timestamp;P1;durP1;ratioP1;P2;durP2;ratioP2
66702;SDS011;60933;46.398;-63.798;2023-01-16T00:00:05;18.38;;;3.72;;
66702;SDS011;60933;46.398;-63.798;2023-01-16T00:02:34;21.95;;;3.78;;
66702;SDS011;60933;46.398;-63.798;2023-01-16T00:05:00;22.27;;;3.55;;
66702;SDS011;60933;46.398;-63.798;2023-01-16T00:07:26;27.27;;;3.58;;
66702;SDS011;60933;46.398;-63.798;2023-01-16T00:09:52;32.30;;;5.28;;
66702;SDS011;60933;46.398;-63.798;2023-01-16T00:12:18;23.63;;;2.97;;
66702;SDS011;60933;46.398;-63.798;2023-01-16T00:14:44;22.38;;;3.38;;
66702;SDS011;60933;46.398;-63.798;2023-01-16T00:17:10;20.65;;;2.53;;
66702;SDS011;60933;46.398;-63.798;2023-01-16T00:19:36;32.97;;;3.30;;
66702;SDS011;60933;46.398;-63.798;2023-01-16T00:22:02;23.25;;;3.97;;
66702;SDS011;60933;46.398;-63.798;2023-01-16T00:24:28;22.92;;;3.75;;
66702;SDS011;60933;46.398;-63.798;2023-01-16T00:26:54;21.88;;;3.13;;
66702;SDS011;60933;46.398;-63.798;2023-01-16T00:29:20;21.65;;;3.28;;
66702;SDS011;60933;46.398;-63.798;2023-01-16T00:34:12;23.60;;;3.25;;
66702;SDS011;60933;46.398;-63.798;2023-01-16T00:39:05;16.27;;;3.55;;
66702;SDS011;60933;46.398;-63.798;2023-01-16T00:41:31;24.77;;;3.35;;
66702;SDS011;60933;46.398;-63.798;2023-01-16T00:43:57;24.85;;;4.20;;
66702;SDS011;60933;46.398;-63.798;2023-01-16T00:46:27;21.63;;;3.67;;
66702;SDS011;60933;46.398;-63.798;2023-01-16T00:48:54;20.60;;;4.53;;
66702;SDS011;60933;46.398;-63.798;2023-01-16T00:51:21;26.27;;;3.55;;
66702;SDS011;60933;46.398;-63.798;2023-01-16T00:53:47;18.95;;;3.05;;
66702;SDS011;60933;46.398;-63.798;2023-01-16T00:56:13;21.98;;;2.83;;
66702;SDS011;60933;46.398;-63.798;2023-01-16T01:01:05;28.90;;;4.07;;
66702;SDS011;60933;46.398;-63.798;2023-01-16T01:03:31;24.35;;;3.95;;
66702;SDS011;60933;46.398;-63.798;2023-01-16T01:05:58;17.38;;;3.65;;
66702;SDS011;60933;46.398;-63.798;2023-01-16T01:10:49;22.83;;;3.30;;
66702;SDS011;60933;46.398;-63.798;2023-01-16T01:13:16;29.85;;;3.63;;
66702;SDS011;60933;46.398;-63.798;2023-01-16T01:15:42;24.15;;;3.47;;
66702;SDS011;60933;46.398;-63.798;2023-01-16T01:20:33;36.40;;;5.25;;
66702;SDS011;60933;46.398;-63.798;2023-01-16T01:22:59;18.95;;;3.20;;
66702;SDS011;60933;46.398;-63.798;2023-01-16T01:25:25;29.98;;;3.58;;
66702;SDS011;60933;46.398;-63.798;2023-01-16T01:27:51;27.42;;;3.15;;
66702;SDS011;60933;46.398;-63.798;2023-01-16T01:30:17;20.33;;;2.95;;
66702;SDS011;60933;46.398;-63.798;2023-01-16T01:32:44;21.25;;;3.30;;
66702;SDS011;60933;46.398;-63.798;2023-01-16T01:35:10;30.17;;;4.13;;
66702;SDS011;60933;46.398;-63.798;2023-01-16T01:40:02;19.35;;;2.90;;
66702;SDS011;60933;46.398;-63.798;2023-01-16T01:42:29;20.95;;;3.58;;
66702;SDS011;60933;46.398;-63.798;2023-01-16T01:45:26;28.23;;;4.57;;
66702;SDS011;60933;46.398;-63.798;2023-01-16T01:50:50;24.73;;;3.60;;
66702;SDS011;60933;46.398;-63.798;2023-01-16T01:53:31;20.17;;;3.58;;
66702;SDS011;60933;46.398;-63.798;2023-01-16T01:56:28;24.95;;;3.72;;
66702;SDS011;60933;46.398;-63.798;2023-01-16T01:59:02;18.63;;;3.30;;
66702;SDS011;60933;46.398;-63.798;2023-01-16T02:01:33;16.58;;;3.03;;
66702;SDS011;60933;46.398;-63.798;2023-01-16T02:04:04;21.80;;;3.13;;
66702;SDS011;60933;46.398;-63.798;2023-01-16T02:06:37;20.10;;;2.97;;
66702;SDS011;60933;46.398;-63.798;2023-01-16T02:09:11;23.42;;;3.40;;
66702;SDS011;60933;46.398;-63.798;2023-01-16T02:11:40;25.27;;;3.50;;
66702;SDS011;60933;46.398;-63.798;2023-01-16T02:14:14;18.98;;;3.35;;
66702;SDS011;60933;46.398;-63.798;2023-01-16T02:16:41;17.38;;;2.45;;
66702;SDS011;60933;46.398;-63.798;2023-01-16T02:19:48;21.13;;;2.58;;
66702;SDS011;60933;46.398;-63.798;2023-01-16T02:28:16;10.98;;;1.55;;
66702;SDS011;60933;46.398;-63.798;2023-01-16T02:42:42;28.42;;;3.65;;
66702;SDS011;60933;46.398;-63.798;2023-01-16T02:53:25;17.65;;;2.30;;
66702;SDS011;60933;46.398;-63.798;2023-01-16T02:55:53;25.92;;;3.78;;
66702;SDS011;60933;46.398;-63.798;2023-01-16T02:58:29;25.90;;;3.15;;
66702;SDS011;60933;46.398;-63.798;2023-01-16T03:00:58;19.92;;;2.83;;
66702;SDS011;60933;46.398;-63.798;2023-01-16T03:03:38;27.90;;;3.45;;
66702;SDS011;60933;46.398;-63.798;2023-01-16T03:08:51;18.80;;;2.92;;
66702;SDS011;60933;46.398;-63.798;2023-01-16T03:11:43;28.38;;;3.55;;
66702;SDS011;60933;46.398;-63.798;2023-01-16T03:14:26;24.83;;;3.35;;
66702;SDS011;60933;46.398;-63.798;2023-01-16T03:17:07;17.60;;;4.35;;
66702;SDS011;60933;46.398;-63.798;2023-01-16T03:22:24;17.55;;;2.75;;
66702;SDS011;60933;46.398;-63.798;2023-01-16T03:30:09;16.00;;;2.50;;
66702;SDS011;60933;46.398;-63.798;2023-01-16T03:32:44;22.42;;;3.20;;
66702;SDS011;60933;46.398;-63.798;2023-01-16T03:38:19;19.05;;;4.05;;
66702;SDS011;60933;46.398;-63.798;2023-01-16T03:40:49;27.38;;;3.55;;
66702;SDS011;60933;46.398;-63.798;2023-01-16T03:43:21;27.45;;;3.92;;
66702;SDS011;60933;46.398;-63.798;2023-01-16T03:51:15;18.55;;;2.88;;
66702;SDS011;60933;46.398;-63.798;2023-01-16T03:53:50;20.00;;;2.28;;
66702;SDS011;60933;46.398;-63.798;2023-01-16T03:59:00;18.55;;;3.30;;
66702;SDS011;60933;46.398;-63.798;2023-01-16T04:04:04;23.98;;;2.83;;
66702;SDS011;60933;46.398;-63.798;2023-01-16T04:09:21;19.92;;;2.80;;
66702;SDS011;60933;46.398;-63.798;2023-01-16T04:11:54;20.58;;;2.83;;
66702;SDS011;60933;46.398;-63.798;2023-01-16T04:14:23;19.85;;;3.10;;
66702;SDS011;60933;46.398;-63.798;2023-01-16T04:16:51;22.88;;;3.22;;
66702;SDS011;60933;46.398;-63.798;2023-01-16T04:19:17;20.70;;;2.45;;
66702;SDS011;60933;46.398;-63.798;2023-01-16T04:21:45;20.48;;;2.83;;
66702;SDS011;60933;46.398;-63.798;2023-01-16T04:24:12;18.83;;;2.20;;
66702;SDS011;60933;46.398;-63.798;2023-01-16T04:26:40;25.50;;;2.53;;
66702;SDS011;60933;46.398;-63.798;2023-01-16T04:31:32;21.50;;;3.42;;
66702;SDS011;60933;46.398;-63.798;2023-01-16T04:36:23;21.98;;;3.88;;
66702;SDS011;60933;46.398;-63.798;2023-01-16T04:41:15;14.32;;;2.42;;
66702;SDS011;60933;46.398;-63.798;2023-01-16T04:44:01;15.13;;;2.33;;
66702;SDS011;60933;46.398;-63.798;2023-01-16T04:46:31;18.33;;;2.67;;
66702;SDS011;60933;46.398;-63.798;2023-01-16T04:48:57;22.25;;;3.40;;
66702;SDS011;60933;46.398;-63.798;2023-01-16T04:51:24;20.63;;;3.15;;
66702;SDS011;60933;46.398;-63.798;2023-01-16T04:53:50;15.00;;;3.17;;
66702;SDS011;60933;46.398;-63.798;2023-01-16T04:56:17;15.45;;;1.88;;
66702;SDS011;60933;46.398;-63.798;2023-01-16T05:01:09;13.75;;;2.67;;
66702;SDS011;60933;46.398;-63.798;2023-01-16T05:03:35;16.88;;;2.40;;
66702;SDS011;60933;46.398;-63.798;2023-01-16T05:08:26;16.30;;;2.10;;
66702;SDS011;60933;46.398;-63.798;2023-01-16T05:10:54;18.13;;;2.67;;
66702;SDS011;60933;46.398;-63.798;2023-01-16T05:13:20;17.00;;;2.33;;
66702;SDS011;60933;46.398;-63.798;2023-01-16T05:15:46;10.00;;;1.92;;
66702;SDS011;60933;46.398;-63.798;2023-01-16T05:18:13;16.98;;;2.58;;
66702;SDS011;60933;46.398;-63.798;2023-01-16T05:23:05;15.07;;;2.05;;
66702;SDS011;60933;46.398;-63.798;2023-01-16T05:25:34;15.23;;;1.85;;
66702;SDS011;60933;46.398;-63.798;2023-01-16T05:28:00;14.52;;;1.95;;
66702;SDS011;60933;46.398;-63.798;2023-01-16T05:30:29;20.10;;;2.75;;
66702;SDS011;60933;46.398;-63.798;2023-01-16T05:32:55;16.00;;;2.95;;
66702;SDS011;60933;46.398;-63.798;2023-01-16T05:37:47;11.23;;;1.95;;
66702;SDS011;60933;46.398;-63.798;2023-01-16T05:40:13;13.73;;;1.63;;
66702;SDS011;60933;46.398;-63.798;2023-01-16T05:42:41;10.60;;;1.73;;
66702;SDS011;60933;46.398;-63.798;2023-01-16T05:45:08;19.77;;;2.38;;
66702;SDS011;60933;46.398;-63.798;2023-01-16T05:47:34;8.00;;;1.20;;
66702;SDS011;60933;46.398;-63.798;2023-01-16T05:50:00;11.70;;;1.17;;
66702;SDS011;60933;46.398;-63.798;2023-01-16T05:52:27;8.73;;;1.48;;
66702;SDS011;60933;46.398;-63.798;2023-01-16T05:54:53;5.68;;;1.42;;
66702;SDS011;60933;46.398;-63.798;2023-01-16T05:57:21;10.02;;;2.38;;
66702;SDS011;60933;46.398;-63.798;2023-01-16T05:59:50;13.88;;;2.45;;
66702;SDS011;60933;46.398;-63.798;2023-01-16T06:02:19;16.48;;;2.85;;
66702;SDS011;60933;46.398;-63.798;2023-01-16T06:04:46;12.30;;;1.92;;
66702;SDS011;60933;46.398;-63.798;2023-01-16T06:07:13;9.18;;;1.95;;
66702;SDS011;60933;46.398;-63.798;2023-01-16T06:09:39;15.35;;;2.17;;
66702;SDS011;60933;46.398;-63.798;2023-01-16T06:12:06;12.10;;;1.45;;
66702;SDS011;60933;46.398;-63.798;2023-01-16T06:14:35;9.05;;;1.50;;
66702;SDS011;60933;46.398;-63.798;2023-01-16T06:19:26;15.48;;;2.63;;
66702;SDS011;60933;46.398;-63.798;2023-01-16T06:21:52;7.75;;;1.27;;
66702;SDS011;60933;46.398;-63.798;2023-01-16T06:24:18;14.07;;;1.70;;
66702;SDS011;60933;46.398;-63.798;2023-01-16T06:26:44;13.73;;;1.83;;
66702;SDS011;60933;46.398;-63.798;2023-01-16T06:31:36;12.18;;;1.85;;
66702;SDS011;60933;46.398;-63.798;2023-01-16T06:36:28;9.15;;;1.38;;
66702;SDS011;60933;46.398;-63.798;2023-01-16T06:41:20;13.23;;;2.13;;
66702;SDS011;60933;46.398;-63.798;2023-01-16T06:46:11;10.73;;;1.30;;
66702;SDS011;60933;46.398;-63.798;2023-01-16T06:51:04;14.07;;;2.35;;
66702;SDS011;60933;46.398;-63.798;2023-01-16T06:53:30;5.18;;;1.20;;
66702;SDS011;60933;46.398;-63.798;2023-01-16T06:55:56;11.73;;;1.70;;
66702;SDS011;60933;46.398;-63.798;2023-01-16T06:58:25;13.20;;;1.63;;
66702;SDS011;60933;46.398;-63.798;2023-01-16T07:00:51;9.60;;;1.55;;
66702;SDS011;60933;46.398;-63.798;2023-01-16T07:03:18;11.45;;;1.40;;
66702;SDS011;60933;46.398;-63.798;2023-01-16T07:05:47;14.88;;;2.40;;
66702;SDS011;60933;46.398;-63.798;2023-01-16T07:08:13;13.32;;;1.80;;
66702;SDS011;60933;46.398;-63.798;2023-01-16T07:10:40;16.90;;;2.70;;
66702;SDS011;60933;46.398;-63.798;2023-01-16T07:13:06;9.88;;;1.48;;
66702;SDS011;60933;46.398;-63.798;2023-01-16T07:21:01;12.00;;;2.25;;
66702;SDS011;60933;46.398;-63.798;2023-01-16T07:23:52;13.00;;;1.45;;
66702;SDS011;60933;46.398;-63.798;2023-01-16T07:26:22;11.15;;;1.83;;
66702;SDS011;60933;46.398;-63.798;2023-01-16T07:28:48;11.43;;;1.83;;
66702;SDS011;60933;46.398;-63.798;2023-01-16T07:31:16;17.48;;;2.25;;
66702;SDS011;60933;46.398;-63.798;2023-01-16T07:36:08;10.70;;;1.98;;
66702;SDS011;60933;46.398;-63.798;2023-01-16T07:41:00;14.50;;;2.13;;
66702;SDS011;60933;46.398;-63.798;2023-01-16T07:45:52;13.63;;;1.77;;
66702;SDS011;60933;46.398;-63.798;2023-01-16T07:48:18;11.90;;;1.75;;
66702;SDS011;60933;46.398;-63.798;2023-01-16T07:50:49;14.55;;;2.47;;
66702;SDS011;60933;46.398;-63.798;2023-01-16T07:53:16;13.07;;;2.10;;
66702;SDS011;60933;46.398;-63.798;2023-01-16T07:55:47;16.00;;;2.20;;
66702;SDS011;60933;46.398;-63.798;2023-01-16T07:58:23;10.27;;;2.03;;
66702;SDS011;60933;46.398;-63.798;2023-01-16T08:00:53;13.15;;;1.83;;
66702;SDS011;60933;46.398;-63.798;2023-01-16T08:03:21;11.70;;;1.27;;
66702;SDS011;60933;46.398;-63.798;2023-01-16T08:05:48;13.48;;;1.60;;
66702;SDS011;60933;46.398;-63.798;2023-01-16T08:08:17;14.15;;;2.25;;
66702;SDS011;60933;46.398;-63.798;2023-01-16T08:10:43;14.80;;;1.80;;
66702;SDS011;60933;46.398;-63.798;2023-01-16T08:15:35;14.85;;;1.67;;
66702;SDS011;60933;46.398;-63.798;2023-01-16T08:18:01;8.55;;;1.60;;
66702;SDS011;60933;46.398;-63.798;2023-01-16T08:22:55;9.60;;;2.20;;
66702;SDS011;60933;46.398;-63.798;2023-01-16T08:25:23;6.88;;;1.63;;
66702;SDS011;60933;46.398;-63.798;2023-01-16T08:27:49;10.45;;;1.70;;
66702;SDS011;60933;46.398;-63.798;2023-01-16T08:30:16;15.65;;;1.65;;
66702;SDS011;60933;46.398;-63.798;2023-01-16T08:32:43;6.32;;;2.05;;
66702;SDS011;60933;46.398;-63.798;2023-01-16T08:37:35;11.95;;;1.67;;
66702;SDS011;60933;46.398;-63.798;2023-01-16T08:40:04;11.80;;;1.60;;
66702;SDS011;60933;46.398;-63.798;2023-01-16T08:42:30;11.00;;;1.85;;
66702;SDS011;60933;46.398;-63.798;2023-01-16T08:45:29;16.08;;;2.00;;
66702;SDS011;60933;46.398;-63.798;2023-01-16T08:48:19;17.95;;;1.95;;
66702;SDS011;60933;46.398;-63.798;2023-01-16T08:51:09;10.18;;;1.40;;
66702;SDS011;60933;46.398;-63.798;2023-01-16T08:53:47;13.50;;;1.35;;
66702;SDS011;60933;46.398;-63.798;2023-01-16T08:56:14;12.60;;;1.85;;
66702;SDS011;60933;46.398;-63.798;2023-01-16T08:58:40;9.60;;;1.42;;
66702;SDS011;60933;46.398;-63.798;2023-01-16T09:01:06;11.57;;;1.42;;
66702;SDS011;60933;46.398;-63.798;2023-01-16T09:03:32;13.20;;;1.70;;
66702;SDS011;60933;46.398;-63.798;2023-01-16T09:05:59;9.52;;;1.65;;
66702;SDS011;60933;46.398;-63.798;2023-01-16T09:08:26;9.52;;;1.98;;
66702;SDS011;60933;46.398;-63.798;2023-01-16T09:16:19;8.85;;;1.35;;
66702;SDS011;60933;46.398;-63.798;2023-01-16T09:18:46;12.20;;;2.00;;
66702;SDS011;60933;46.398;-63.798;2023-01-16T09:21:13;14.45;;;2.17;;
66702;SDS011;60933;46.398;-63.798;2023-01-16T09:23:39;13.88;;;1.80;;
66702;SDS011;60933;46.398;-63.798;2023-01-16T09:26:06;11.43;;;2.47;;
66702;SDS011;60933;46.398;-63.798;2023-01-16T09:28:32;7.13;;;1.48;;
66702;SDS011;60933;46.398;-63.798;2023-01-16T09:33:23;10.05;;;1.70;;
66702;SDS011;60933;46.398;-63.798;2023-01-16T09:35:49;10.07;;;1.80;;
66702;SDS011;60933;46.398;-63.798;2023-01-16T09:40:45;10.13;;;1.42;;
66702;SDS011;60933;46.398;-63.798;2023-01-16T09:43:34;7.72;;;1.63;;
66702;SDS011;60933;46.398;-63.798;2023-01-16T09:51:15;12.35;;;1.85;;
66702;SDS011;60933;46.398;-63.798;2023-01-16T09:53:48;15.30;;;1.88;;
66702;SDS011;60933;46.398;-63.798;2023-01-16T10:02:27;9.45;;;1.52;;
66702;SDS011;60933;46.398;-63.798;2023-01-16T10:04:58;13.32;;;1.95;;
66702;SDS011;60933;46.398;-63.798;2023-01-16T10:07:41;9.02;;;1.40;;
66702;SDS011;60933;46.398;-63.798;2023-01-16T10:24:07;10.75;;;1.70;;
66702;SDS011;60933;46.398;-63.798;2023-01-16T10:29:32;6.93;;;1.67;;
66702;SDS011;60933;46.398;-63.798;2023-01-16T10:35:02;11.20;;;1.70;;
66702;SDS011;60933;46.398;-63.798;2023-01-16T10:37:36;9.60;;;2.22;;
66702;SDS011;60933;46.398;-63.798;2023-01-16T10:40:11;11.50;;;2.00;;
66702;SDS011;60933;46.398;-63.798;2023-01-16T10:42:41;9.50;;;1.77;;
66702;SDS011;60933;46.398;-63.798;2023-01-16T10:45:30;10.63;;;2.45;;
66702;SDS011;60933;46.398;-63.798;2023-01-16T10:48:17;9.63;;;1.80;;
66702;SDS011;60933;46.398;-63.798;2023-01-16T10:51:02;13.07;;;1.85;;
66702;SDS011;60933;46.398;-63.798;2023-01-16T10:53:30;12.07;;;1.75;;
66702;SDS011;60933;46.398;-63.798;2023-01-16T10:55:58;11.30;;;1.45;;
66702;SDS011;60933;46.398;-63.798;2023-01-16T11:00:54;12.10;;;1.80;;
66702;SDS011;60933;46.398;-63.798;2023-01-16T11:03:39;16.65;;;1.83;;
66702;SDS011;60933;46.398;-63.798;2023-01-16T11:06:19;14.73;;;2.65;;
66702;SDS011;60933;46.398;-63.798;2023-01-16T11:08:52;11.13;;;1.73;;
66702;SDS011;60933;46.398;-63.798;2023-01-16T11:11:25;19.75;;;2.10;;
66702;SDS011;60933;46.398;-63.798;2023-01-16T11:14:33;11.85;;;2.22;;
66702;SDS011;60933;46.398;-63.798;2023-01-16T11:17:21;13.00;;;2.17;;
66702;SDS011;60933;46.398;-63.798;2023-01-16T11:20:32;15.20;;;1.90;;
66702;SDS011;60933;46.398;-63.798;2023-01-16T11:23:22;12.15;;;2.13;;
66702;SDS011;60933;46.398;-63.798;2023-01-16T11:25:50;14.18;;;2.03;;
66702;SDS011;60933;46.398;-63.798;2023-01-16T11:28:22;19.48;;;2.20;;
66702;SDS011;60933;46.398;-63.798;2023-01-16T11:33:23;13.10;;;3.00;;
66702;SDS011;60933;46.398;-63.798;2023-01-16T11:35:57;12.65;;;1.50;;
66702;SDS011;60933;46.398;-63.798;2023-01-16T11:40:54;12.35;;;2.17;;
66702;SDS011;60933;46.398;-63.798;2023-01-16T11:43:23;14.25;;;2.00;;
66702;SDS011;60933;46.398;-63.798;2023-01-16T11:49:02;19.30;;;2.75;;
66702;SDS011;60933;46.398;-63.798;2023-01-16T11:51:32;10.13;;;2.00;;
66702;SDS011;60933;46.398;-63.798;2023-01-16T11:54:01;22.67;;;2.95;;
66702;SDS011;60933;46.398;-63.798;2023-01-16T11:56:38;10.95;;;1.98;;
66702;SDS011;60933;46.398;-63.798;2023-01-16T11:59:17;12.00;;;1.75;;
66702;SDS011;60933;46.398;-63.798;2023-01-16T12:04:50;12.18;;;1.60;;
66702;SDS011;60933;46.398;-63.798;2023-01-16T12:07:49;16.98;;;2.22;;
66702;SDS011;60933;46.398;-63.798;2023-01-16T12:10:25;14.70;;;1.90;;
66702;SDS011;60933;46.398;-63.798;2023-01-16T12:13:06;18.95;;;2.88;;
66702;SDS011;60933;46.398;-63.798;2023-01-16T12:21:25;17.05;;;2.42;;
66702;SDS011;60933;46.398;-63.798;2023-01-16T12:24:12;13.55;;;2.08;;
66702;SDS011;60933;46.398;-63.798;2023-01-16T12:29:20;17.88;;;2.25;;
66702;SDS011;60933;46.398;-63.798;2023-01-16T12:43:43;15.48;;;2.03;;
66702;SDS011;60933;46.398;-63.798;2023-01-16T12:46:39;11.02;;;2.50;;
66702;SDS011;60933;46.398;-63.798;2023-01-16T12:49:21;10.30;;;1.60;;
66702;SDS011;60933;46.398;-63.798;2023-01-16T12:52:12;11.98;;;1.83;;
66702;SDS011;60933;46.398;-63.798;2023-01-16T12:54:58;13.27;;;1.83;;
66702;SDS011;60933;46.398;-63.798;2023-01-16T12:57:59;12.30;;;2.17;;
66702;SDS011;60933;46.398;-63.798;2023-01-16T13:06:40;15.57;;;2.38;;
66702;SDS011;60933;46.398;-63.798;2023-01-16T13:09:17;7.72;;;1.30;;
66702;SDS011;60933;46.398;-63.798;2023-01-16T13:12:03;14.18;;;1.80;;
66702;SDS011;60933;46.398;-63.798;2023-01-16T13:15:20;11.13;;;1.70;;
66702;SDS011;60933;46.398;-63.798;2023-01-16T13:18:01;11.10;;;1.83;;
66702;SDS011;60933;46.398;-63.798;2023-01-16T13:20:33;13.10;;;2.70;;
66702;SDS011;60933;46.398;-63.798;2023-01-16T13:23:04;9.93;;;1.98;;
66702;SDS011;60933;46.398;-63.798;2023-01-16T13:25:43;14.65;;;2.17;;
66702;SDS011;60933;46.398;-63.798;2023-01-16T13:28:21;10.70;;;2.35;;
66702;SDS011;60933;46.398;-63.798;2023-01-16T13:30:56;17.85;;;1.90;;
66702;SDS011;60933;46.398;-63.798;2023-01-16T13:33:28;14.27;;;2.58;;
66702;SDS011;60933;46.398;-63.798;2023-01-16T13:39:03;13.68;;;2.70;;
66702;SDS011;60933;46.398;-63.798;2023-01-16T13:41:54;15.55;;;1.90;;
66702;SDS011;60933;46.398;-63.798;2023-01-16T13:44:26;7.82;;;1.60;;
66702;SDS011;60933;46.398;-63.798;2023-01-16T13:47:19;13.23;;;2.22;;
66702;SDS011;60933;46.398;-63.798;2023-01-16T13:49:52;21.20;;;3.00;;
66702;SDS011;60933;46.398;-63.798;2023-01-16T13:52:24;12.27;;;1.75;;
66702;SDS011;60933;46.398;-63.798;2023-01-16T13:54:56;18.48;;;2.13;;
66702;SDS011;60933;46.398;-63.798;2023-01-16T13:57:24;13.15;;;1.48;;
66702;SDS011;60933;46.398;-63.798;2023-01-16T14:00:02;12.32;;;1.80;;
66702;SDS011;60933;46.398;-63.798;2023-01-16T14:07:50;13.48;;;1.92;;
66702;SDS011;60933;46.398;-63.798;2023-01-16T14:10:44;9.73;;;1.85;;
66702;SDS011;60933;46.398;-63.798;2023-01-16T14:13:24;14.80;;;2.63;;
66702;SDS011;60933;46.398;-63.798;2023-01-16T14:16:01;21.33;;;2.60;;
66702;SDS011;60933;46.398;-63.798;2023-01-16T14:24:24;9.25;;;1.33;;
66702;SDS011;60933;46.398;-63.798;2023-01-16T14:26:50;14.98;;;2.10;;
66702;SDS011;60933;46.398;-63.798;2023-01-16T14:40:18;8.43;;;1.95;;
66702;SDS011;60933;46.398;-63.798;2023-01-16T14:45:37;5.68;;;1.00;;
66702;SDS011;60933;46.398;-63.798;2023-01-16T14:54:03;7.75;;;1.63;;
66702;SDS011;60933;46.398;-63.798;2023-01-16T14:56:53;11.77;;;1.88;;
66702;SDS011;60933;46.398;-63.798;2023-01-16T14:59:27;8.10;;;1.63;;
66702;SDS011;60933;46.398;-63.798;2023-01-16T15:02:01;15.85;;;1.50;;
66702;SDS011;60933;46.398;-63.798;2023-01-16T15:05:04;20.27;;;2.45;;
66702;SDS011;60933;46.398;-63.798;2023-01-16T15:07:49;11.82;;;1.60;;
66702;SDS011;60933;46.398;-63.798;2023-01-16T15:10:20;12.85;;;1.52;;
66702;SDS011;60933;46.398;-63.798;2023-01-16T15:12:54;11.00;;;2.55;;
66702;SDS011;60933;46.398;-63.798;2023-01-16T15:16:04;11.60;;;1.77;;
66702;SDS011;60933;46.398;-63.798;2023-01-16T15:18:39;13.20;;;2.17;;
66702;SDS011;60933;46.398;-63.798;2023-01-16T15:21:26;10.38;;;1.00;;
66702;SDS011;60933;46.398;-63.798;2023-01-16T15:24:12;10.40;;;1.70;;
66702;SDS011;60933;46.398;-63.798;2023-01-16T15:29:44;9.60;;;1.42;;
66702;SDS011;60933;46.398;-63.798;2023-01-16T15:32:25;13.70;;;2.22;;
66702;SDS011;60933;46.398;-63.798;2023-01-16T15:35:06;14.50;;;2.75;;
66702;SDS011;60933;46.398;-63.798;2023-01-16T15:37:48;9.32;;;1.45;;
66702;SDS011;60933;46.398;-63.798;2023-01-16T15:40:22;14.50;;;2.33;;
66702;SDS011;60933;46.398;-63.798;2023-01-16T15:42:49;9.90;;;1.60;;
66702;SDS011;60933;46.398;-63.798;2023-01-16T15:45:34;7.93;;;1.98;;
66702;SDS011;60933;46.398;-63.798;2023-01-16T15:53:28;12.10;;;1.75;;
66702;SDS011;60933;46.398;-63.798;2023-01-16T15:56:01;11.95;;;2.10;;
66702;SDS011;60933;46.398;-63.798;2023-01-16T15:58:32;12.98;;;1.88;;
66702;SDS011;60933;46.398;-63.798;2023-01-16T16:01:02;12.38;;;1.83;;
66702;SDS011;60933;46.398;-63.798;2023-01-16T16:03:52;9.05;;;1.90;;
66702;SDS011;60933;46.398;-63.798;2023-01-16T16:06:17;9.32;;;2.45;;
66702;SDS011;60933;46.398;-63.798;2023-01-16T16:08:45;10.70;;;2.38;;
66702;SDS011;60933;46.398;-63.798;2023-01-16T16:11:20;14.00;;;1.92;;
66702;SDS011;60933;46.398;-63.798;2023-01-16T16:14:06;6.85;;;1.42;;
66702;SDS011;60933;46.398;-63.798;2023-01-16T16:17:00;10.35;;;1.67;;
66702;SDS011;60933;46.398;-63.798;2023-01-16T16:19:49;12.20;;;2.05;;
66702;SDS011;60933;46.398;-63.798;2023-01-16T16:22:19;13.20;;;2.15;;
66702;SDS011;60933;46.398;-63.798;2023-01-16T16:25:08;12.30;;;2.08;;
66702;SDS011;60933;46.398;-63.798;2023-01-16T16:27:46;13.55;;;2.08;;
66702;SDS011;60933;46.398;-63.798;2023-01-16T16:30:15;12.52;;;1.92;;
66702;SDS011;60933;46.398;-63.798;2023-01-16T16:32:49;14.32;;;1.73;;
66702;SDS011;60933;46.398;-63.798;2023-01-16T16:35:23;10.93;;;1.95;;
66702;SDS011;60933;46.398;-63.798;2023-01-16T16:37:54;9.25;;;1.98;;
66702;SDS011;60933;46.398;-63.798;2023-01-16T16:40:21;13.02;;;1.60;;
66702;SDS011;60933;46.398;-63.798;2023-01-16T16:42:49;8.95;;;2.15;;
66702;SDS011;60933;46.398;-63.798;2023-01-16T16:47:46;10.70;;;1.52;;
66702;SDS011;60933;46.398;-63.798;2023-01-16T16:53:10;14.05;;;2.05;;
66702;SDS011;60933;46.398;-63.798;2023-01-16T16:55:43;12.85;;;2.20;;
66702;SDS011;60933;46.398;-63.798;2023-01-16T16:58:23;12.35;;;1.98;;
66702;SDS011;60933;46.398;-63.798;2023-01-16T17:00:52;11.77;;;1.58;;
66702;SDS011;60933;46.398;-63.798;2023-01-16T17:03:22;14.32;;;1.67;;
66702;SDS011;60933;46.398;-63.798;2023-01-16T17:05:51;12.77;;;1.45;;
66702;SDS011;60933;46.398;-63.798;2023-01-16T17:08:22;6.55;;;1.23;;
66702;SDS011;60933;46.398;-63.798;2023-01-16T17:10:53;20.73;;;2.95;;
66702;SDS011;60933;46.398;-63.798;2023-01-16T17:13:20;7.43;;;1.73;;
66702;SDS011;60933;46.398;-63.798;2023-01-16T17:15:48;11.35;;;2.17;;
66702;SDS011;60933;46.398;-63.798;2023-01-16T17:18:22;20.92;;;2.47;;
66702;SDS011;60933;46.398;-63.798;2023-01-16T17:20:50;16.08;;;2.47;;
66702;SDS011;60933;46.398;-63.798;2023-01-16T17:23:19;8.68;;;1.63;;
66702;SDS011;60933;46.398;-63.798;2023-01-16T17:25:47;19.33;;;2.30;;
66702;SDS011;60933;46.398;-63.798;2023-01-16T17:30:39;14.10;;;2.53;;
66702;SDS011;60933;46.398;-63.798;2023-01-16T17:33:14;14.68;;;2.53;;
66702;SDS011;60933;46.398;-63.798;2023-01-16T17:35:42;15.60;;;2.55;;
66702;SDS011;60933;46.398;-63.798;2023-01-16T17:38:15;9.43;;;2.08;;
66702;SDS011;60933;46.398;-63.798;2023-01-16T17:40:43;10.40;;;1.75;;
66702;SDS011;60933;46.398;-63.798;2023-01-16T17:43:12;10.57;;;1.83;;
66702;SDS011;60933;46.398;-63.798;2023-01-16T17:45:58;14.23;;;1.98;;
66702;SDS011;60933;46.398;-63.798;2023-01-16T17:48:28;15.25;;;1.85;;
66702;SDS011;60933;46.398;-63.798;2023-01-16T17:50:55;17.05;;;2.42;;
66702;SDS011;60933;46.398;-63.798;2023-01-16T17:53:24;14.13;;;2.70;;
66702;SDS011;60933;46.398;-63.798;2023-01-16T17:55:52;13.52;;;1.80;;
66702;SDS011;60933;46.398;-63.798;2023-01-16T17:58:27;15.52;;;2.75;;
66702;SDS011;60933;46.398;-63.798;2023-01-16T18:01:08;18.90;;;2.83;;
66702;SDS011;60933;46.398;-63.798;2023-01-16T18:03:37;13.27;;;2.22;;
66702;SDS011;60933;46.398;-63.798;2023-01-16T18:08:30;14.60;;;1.52;;
66702;SDS011;60933;46.398;-63.798;2023-01-16T18:11:00;14.10;;;1.70;;
66702;SDS011;60933;46.398;-63.798;2023-01-16T18:13:51;13.88;;;1.50;;
66702;SDS011;60933;46.398;-63.798;2023-01-16T18:16:36;10.45;;;1.83;;
66702;SDS011;60933;46.398;-63.798;2023-01-16T18:19:21;9.55;;;1.50;;
66702;SDS011;60933;46.398;-63.798;2023-01-16T18:21:47;7.43;;;1.42;;
66702;SDS011;60933;46.398;-63.798;2023-01-16T18:24:26;8.98;;;1.30;;
66702;SDS011;60933;46.398;-63.798;2023-01-16T18:26:53;7.53;;;2.28;;
66702;SDS011;60933;46.398;-63.798;2023-01-16T18:29:19;6.88;;;1.30;;
66702;SDS011;60933;46.398;-63.798;2023-01-16T18:34:31;5.70;;;1.48;;
66702;SDS011;60933;46.398;-63.798;2023-01-16T18:36:58;7.68;;;1.40;;
66702;SDS011;60933;46.398;-63.798;2023-01-16T18:44:53;8.65;;;1.15;;
66702;SDS011;60933;46.398;-63.798;2023-01-16T18:47:37;9.70;;;1.38;;
66702;SDS011;60933;46.398;-63.798;2023-01-16T18:50:22;7.10;;;1.48;;
66702;SDS011;60933;46.398;-63.798;2023-01-16T18:55:57;5.45;;;2.00;;
66702;SDS011;60933;46.398;-63.798;2023-01-16T18:58:41;4.72;;;1.13;;
66702;SDS011;60933;46.398;-63.798;2023-01-16T19:01:37;8.02;;;1.20;;
66702;SDS011;60933;46.398;-63.798;2023-01-16T19:04:23;6.75;;;1.23;;
66702;SDS011;60933;46.398;-63.798;2023-01-16T19:06:50;9.25;;;1.42;;
66702;SDS011;60933;46.398;-63.798;2023-01-16T19:09:17;8.05;;;1.48;;